sensor_id;sensor_type;location;lat;lon;timestamp;temperature;humidity
17795;DHT22;9021;50.882;4.326;2023-05-07T00:01:16;18.60;99.90
17795;DHT22;9021;50.882;4.326;2023-05-07T00:03:42;18.70;99.90
17795;DHT22;9021;50.882;4.326;2023-05-07T00:06:08;18.60;99.90
17795;DHT22;9021;50.882;4.326;2023-05-07T00:08:33;18.60;99.90
17795;DHT22;9021;50.882;4.326;2023-05-07T00:10:59;18.50;99.90
17795;DHT22;9021;50.882;4.326;2023-05-07T00:13:24;18.50;99.90
17795;DHT22;9021;50.882;4.326;2023-05-07T00:15:50;18.60;99.90
17795;DHT22;9021;50.882;4.326;2023-05-07T00:18:16;18.60;99.90
17795;DHT22;9021;50.882;4.326;2023-05-07T00:20:41;18.60;99.90
17795;DHT22;9021;50.882;4.326;2023-05-07T00:23:07;18.60;99.90
17795;DHT22;9021;50.882;4.326;2023-05-07T00:25:32;18.60;99.90
17795;DHT22;9021;50.882;4.326;2023-05-07T00:27:58;18.60;99.90
17795;DHT22;9021;50.882;4.326;2023-05-07T00:30:28;18.60;99.90
17795;DHT22;9021;50.882;4.326;2023-05-07T00:32:54;18.60;99.90
17795;DHT22;9021;50.882;4.326;2023-05-07T00:35:20;18.60;99.90
17795;DHT22;9021;50.882;4.326;2023-05-07T00:37:45;18.60;99.90
17795;DHT22;9021;50.882;4.326;2023-05-07T00:40:11;18.60;99.90
17795;DHT22;9021;50.882;4.326;2023-05-07T00:42:37;18.60;99.90
17795;DHT22;9021;50.882;4.326;2023-05-07T00:45:03;18.70;99.90
17795;DHT22;9021;50.882;4.326;2023-05-07T00:47:29;18.60;99.90
17795;DHT22;9021;50.882;4.326;2023-05-07T00:49:54;18.60;99.90
17795;DHT22;9021;50.882;4.326;2023-05-07T00:52:20;18.60;99.90
17795;DHT22;9021;50.882;4.326;2023-05-07T00:54:47;18.60;99.90
17795;DHT22;9021;50.882;4.326;2023-05-07T00:57:13;18.60;99.90
17795;DHT22;9021;50.882;4.326;2023-05-07T00:59:38;18.60;99.90
17795;DHT22;9021;50.882;4.326;2023-05-07T01:02:06;18.60;99.90
17795;DHT22;9021;50.882;4.326;2023-05-07T01:04:32;18.60;99.90
17795;DHT22;9021;50.882;4.326;2023-05-07T01:06:57;18.60;99.90
17795;DHT22;9021;50.882;4.326;2023-05-07T01:09:24;18.60;99.90
17795;DHT22;9021;50.882;4.326;2023-05-07T01:11:50;18.60;99.90
17795;DHT22;9021;50.882;4.326;2023-05-07T01:14:17;18.50;99.90
17795;DHT22;9021;50.882;4.326;2023-05-07T01:16:42;18.50;99.90
17795;DHT22;9021;50.882;4.326;2023-05-07T01:19:08;18.40;99.90
17795;DHT22;9021;50.882;4.326;2023-05-07T01:21:36;18.50;99.90
17795;DHT22;9021;50.882;4.326;2023-05-07T01:24:02;18.40;99.90
17795;DHT22;9021;50.882;4.326;2023-05-07T01:26:28;18.30;99.90
17795;DHT22;9021;50.882;4.326;2023-05-07T01:28:54;18.20;99.90
17795;DHT22;9021;50.882;4.326;2023-05-07T01:31:19;18.10;99.90
17795;DHT22;9021;50.882;4.326;2023-05-07T01:33:45;18.10;99.90
17795;DHT22;9021;50.882;4.326;2023-05-07T01:36:13;18.10;99.90
17795;DHT22;9021;50.882;4.326;2023-05-07T01:38:39;18.10;99.90
17795;DHT22;9021;50.882;4.326;2023-05-07T01:41:06;18.00;99.90
17795;DHT22;9021;50.882;4.326;2023-05-07T01:43:32;18.00;99.90
17795;DHT22;9021;50.882;4.326;2023-05-07T01:45:58;17.90;99.90
17795;DHT22;9021;50.882;4.326;2023-05-07T01:48:24;17.90;99.90
17795;DHT22;9021;50.882;4.326;2023-05-07T01:50:50;17.90;99.90
17795;DHT22;9021;50.882;4.326;2023-05-07T01:53:17;17.80;99.90
17795;DHT22;9021;50.882;4.326;2023-05-07T01:55:43;17.80;99.90
17795;DHT22;9021;50.882;4.326;2023-05-07T01:58:08;17.70;99.90
17795;DHT22;9021;50.882;4.326;2023-05-07T02:00:34;17.70;99.90
17795;DHT22;9021;50.882;4.326;2023-05-07T02:02:59;17.70;99.90
17795;DHT22;9021;50.882;4.326;2023-05-07T02:05:25;17.70;99.90
17795;DHT22;9021;50.882;4.326;2023-05-07T02:07:51;17.60;99.90
17795;DHT22;9021;50.882;4.326;2023-05-07T02:10:16;17.50;99.90
17795;DHT22;9021;50.882;4.326;2023-05-07T02:12:42;17.40;99.90
17795;DHT22;9021;50.882;4.326;2023-05-07T02:15:08;17.40;99.90
17795;DHT22;9021;50.882;4.326;2023-05-07T02:17:33;17.40;99.90
17795;DHT22;9021;50.882;4.326;2023-05-07T02:19:59;17.40;99.90
17795;DHT22;9021;50.882;4.326;2023-05-07T02:22:25;17.50;99.90
17795;DHT22;9021;50.882;4.326;2023-05-07T02:24:51;17.40;99.90
17795;DHT22;9021;50.882;4.326;2023-05-07T02:27:16;17.30;99.90
17795;DHT22;9021;50.882;4.326;2023-05-07T02:29:42;17.20;99.90
17795;DHT22;9021;50.882;4.326;2023-05-07T02:32:07;17.20;99.90
17795;DHT22;9021;50.882;4.326;2023-05-07T02:34:33;17.10;99.90
17795;DHT22;9021;50.882;4.326;2023-05-07T02:36:58;17.20;99.90
17795;DHT22;9021;50.882;4.326;2023-05-07T02:39:24;17.20;99.90
17795;DHT22;9021;50.882;4.326;2023-05-07T02:41:49;17.20;99.90
17795;DHT22;9021;50.882;4.326;2023-05-07T02:44:15;17.20;99.90
17795;DHT22;9021;50.882;4.326;2023-05-07T02:46:40;17.10;99.90
17795;DHT22;9021;50.882;4.326;2023-05-07T02:49:06;17.10;99.90
17795;DHT22;9021;50.882;4.326;2023-05-07T02:51:32;16.70;99.90
17795;DHT22;9021;50.882;4.326;2023-05-07T02:53:57;17.00;99.90
17795;DHT22;9021;50.882;4.326;2023-05-07T02:56:25;17.00;99.90
17795;DHT22;9021;50.882;4.326;2023-05-07T02:58:50;16.90;99.90
17795;DHT22;9021;50.882;4.326;2023-05-07T03:01:16;16.90;99.90
17795;DHT22;9021;50.882;4.326;2023-05-07T03:03:42;16.90;99.90
17795;DHT22;9021;50.882;4.326;2023-05-07T03:06:07;16.90;99.90
17795;DHT22;9021;50.882;4.326;2023-05-07T03:08:33;16.80;99.90
17795;DHT22;9021;50.882;4.326;2023-05-07T03:10:58;16.90;99.90
17795;DHT22;9021;50.882;4.326;2023-05-07T03:13:24;16.80;99.90
17795;DHT22;9021;50.882;4.326;2023-05-07T03:15:50;16.90;99.90
17795;DHT22;9021;50.882;4.326;2023-05-07T03:18:16;16.90;99.90
17795;DHT22;9021;50.882;4.326;2023-05-07T03:20:41;16.90;99.90
17795;DHT22;9021;50.882;4.326;2023-05-07T03:23:07;16.90;99.90
17795;DHT22;9021;50.882;4.326;2023-05-07T03:25:32;17.00;99.90
17795;DHT22;9021;50.882;4.326;2023-05-07T03:27:58;17.10;99.90
17795;DHT22;9021;50.882;4.326;2023-05-07T03:30:24;17.10;99.90
17795;DHT22;9021;50.882;4.326;2023-05-07T03:32:50;16.70;99.90
17795;DHT22;9021;50.882;4.326;2023-05-07T03:35:15;16.90;99.90
17795;DHT22;9021;50.882;4.326;2023-05-07T03:37:41;16.90;99.90
17795;DHT22;9021;50.882;4.326;2023-05-07T03:40:07;16.90;99.90
17795;DHT22;9021;50.882;4.326;2023-05-07T03:42:34;17.00;99.90
17795;DHT22;9021;50.882;4.326;2023-05-07T03:45:00;17.00;99.90
17795;DHT22;9021;50.882;4.326;2023-05-07T03:47:25;17.00;99.90
17795;DHT22;9021;50.882;4.326;2023-05-07T03:49:51;17.00;99.90
17795;DHT22;9021;50.882;4.326;2023-05-07T03:52:18;17.00;99.90
17795;DHT22;9021;50.882;4.326;2023-05-07T03:54:48;17.00;99.90
17795;DHT22;9021;50.882;4.326;2023-05-07T03:57:13;17.00;99.90
17795;DHT22;9021;50.882;4.326;2023-05-07T03:59:39;17.00;99.90
17795;DHT22;9021;50.882;4.326;2023-05-07T04:02:05;17.20;99.90
17795;DHT22;9021;50.882;4.326;2023-05-07T04:04:30;17.10;99.90
17795;DHT22;9021;50.882;4.326;2023-05-07T04:06:58;17.10;99.90
17795;DHT22;9021;50.882;4.326;2023-05-07T04:09:24;17.00;99.90
17795;DHT22;9021;50.882;4.326;2023-05-07T04:11:50;17.10;99.90
17795;DHT22;9021;50.882;4.326;2023-05-07T04:14:16;17.00;99.90
17795;DHT22;9021;50.882;4.326;2023-05-07T04:16:41;17.00;99.90
17795;DHT22;9021;50.882;4.326;2023-05-07T04:19:07;17.10;99.90
17795;DHT22;9021;50.882;4.326;2023-05-07T04:21:32;17.20;99.90
17795;DHT22;9021;50.882;4.326;2023-05-07T04:23:58;17.20;99.90
17795;DHT22;9021;50.882;4.326;2023-05-07T04:26:23;17.20;99.90
17795;DHT22;9021;50.882;4.326;2023-05-07T04:28:49;17.30;99.90
17795;DHT22;9021;50.882;4.326;2023-05-07T04:31:15;17.20;99.90
17795;DHT22;9021;50.882;4.326;2023-05-07T04:33:41;17.20;99.90
17795;DHT22;9021;50.882;4.326;2023-05-07T04:36:06;17.20;99.90
17795;DHT22;9021;50.882;4.326;2023-05-07T04:38:32;17.30;99.90
17795;DHT22;9021;50.882;4.326;2023-05-07T04:41:02;17.30;99.90
17795;DHT22;9021;50.882;4.326;2023-05-07T04:43:28;17.30;99.90
17795;DHT22;9021;50.882;4.326;2023-05-07T04:45:53;17.30;99.90
17795;DHT22;9021;50.882;4.326;2023-05-07T04:48:19;17.30;99.90
17795;DHT22;9021;50.882;4.326;2023-05-07T04:50:49;17.30;99.90
17795;DHT22;9021;50.882;4.326;2023-05-07T04:53:14;17.30;99.90
17795;DHT22;9021;50.882;4.326;2023-05-07T04:55:40;17.40;99.90
17795;DHT22;9021;50.882;4.326;2023-05-07T04:58:06;17.40;99.90
17795;DHT22;9021;50.882;4.326;2023-05-07T05:00:31;17.40;99.90
17795;DHT22;9021;50.882;4.326;2023-05-07T05:02:57;17.40;99.90
17795;DHT22;9021;50.882;4.326;2023-05-07T05:05:22;17.40;99.90
17795;DHT22;9021;50.882;4.326;2023-05-07T05:07:48;17.50;99.90
17795;DHT22;9021;50.882;4.326;2023-05-07T05:10:13;17.60;99.90
17795;DHT22;9021;50.882;4.326;2023-05-07T05:12:39;17.50;99.90
17795;DHT22;9021;50.882;4.326;2023-05-07T05:15:05;17.50;99.90
17795;DHT22;9021;50.882;4.326;2023-05-07T05:17:30;17.50;99.90
17795;DHT22;9021;50.882;4.326;2023-05-07T05:19:56;17.50;99.90
17795;DHT22;9021;50.882;4.326;2023-05-07T05:22:21;17.60;99.90
17795;DHT22;9021;50.882;4.326;2023-05-07T05:24:47;17.80;99.90
17795;DHT22;9021;50.882;4.326;2023-05-07T05:27:12;17.80;99.90
17795;DHT22;9021;50.882;4.326;2023-05-07T05:29:38;17.90;99.90
17795;DHT22;9021;50.882;4.326;2023-05-07T05:32:03;17.90;99.90
17795;DHT22;9021;50.882;4.326;2023-05-07T05:34:29;17.90;99.90
17795;DHT22;9021;50.882;4.326;2023-05-07T05:36:55;18.00;99.90
17795;DHT22;9021;50.882;4.326;2023-05-07T05:39:20;18.00;99.90
17795;DHT22;9021;50.882;4.326;2023-05-07T05:41:46;18.00;99.90
17795;DHT22;9021;50.882;4.326;2023-05-07T05:44:12;18.00;99.90
17795;DHT22;9021;50.882;4.326;2023-05-07T05:46:37;17.90;99.90
17795;DHT22;9021;50.882;4.326;2023-05-07T05:49:03;18.00;99.90
17795;DHT22;9021;50.882;4.326;2023-05-07T05:51:28;18.10;99.90
17795;DHT22;9021;50.882;4.326;2023-05-07T05:53:54;18.10;99.90
17795;DHT22;9021;50.882;4.326;2023-05-07T05:56:20;18.30;99.90
17795;DHT22;9021;50.882;4.326;2023-05-07T05:58:46;18.20;99.90
17795;DHT22;9021;50.882;4.326;2023-05-07T06:01:11;18.30;99.90
17795;DHT22;9021;50.882;4.326;2023-05-07T06:03:37;18.40;99.90
17795;DHT22;9021;50.882;4.326;2023-05-07T06:06:02;18.40;99.90
17795;DHT22;9021;50.882;4.326;2023-05-07T06:08:31;18.40;99.90
17795;DHT22;9021;50.882;4.326;2023-05-07T06:10:56;18.50;99.90
17795;DHT22;9021;50.882;4.326;2023-05-07T06:13:22;18.40;99.90
17795;DHT22;9021;50.882;4.326;2023-05-07T06:15:48;18.40;99.90
17795;DHT22;9021;50.882;4.326;2023-05-07T06:18:14;18.50;99.90
17795;DHT22;9021;50.882;4.326;2023-05-07T06:20:39;18.60;99.90
17795;DHT22;9021;50.882;4.326;2023-05-07T06:23:05;18.60;99.90
17795;DHT22;9021;50.882;4.326;2023-05-07T06:25:30;18.50;99.90
17795;DHT22;9021;50.882;4.326;2023-05-07T06:27:56;18.50;99.90
17795;DHT22;9021;50.882;4.326;2023-05-07T06:30:21;18.40;99.90
17795;DHT22;9021;50.882;4.326;2023-05-07T06:32:47;18.50;99.90
17795;DHT22;9021;50.882;4.326;2023-05-07T06:35:13;18.50;99.90
17795;DHT22;9021;50.882;4.326;2023-05-07T06:37:38;18.40;99.90
17795;DHT22;9021;50.882;4.326;2023-05-07T06:40:05;18.50;99.90
17795;DHT22;9021;50.882;4.326;2023-05-07T06:42:32;18.50;99.90
17795;DHT22;9021;50.882;4.326;2023-05-07T06:44:57;18.50;99.90
17795;DHT22;9021;50.882;4.326;2023-05-07T06:47:23;18.50;99.90
17795;DHT22;9021;50.882;4.326;2023-05-07T06:49:48;18.50;99.90
17795;DHT22;9021;50.882;4.326;2023-05-07T06:52:14;18.50;99.90
17795;DHT22;9021;50.882;4.326;2023-05-07T06:54:40;18.50;99.90
17795;DHT22;9021;50.882;4.326;2023-05-07T06:57:05;18.50;99.90
17795;DHT22;9021;50.882;4.326;2023-05-07T06:59:31;18.50;99.90
17795;DHT22;9021;50.882;4.326;2023-05-07T07:01:56;18.60;99.90
17795;DHT22;9021;50.882;4.326;2023-05-07T07:04:22;18.60;99.90
17795;DHT22;9021;50.882;4.326;2023-05-07T07:06:49;18.70;99.90
17795;DHT22;9021;50.882;4.326;2023-05-07T07:09:14;18.70;99.90
17795;DHT22;9021;50.882;4.326;2023-05-07T07:11:40;18.70;99.90
17795;DHT22;9021;50.882;4.326;2023-05-07T07:14:05;18.70;99.90
17795;DHT22;9021;50.882;4.326;2023-05-07T07:16:31;18.60;99.90
17795;DHT22;9021;50.882;4.326;2023-05-07T07:18:56;18.50;99.90
17795;DHT22;9021;50.882;4.326;2023-05-07T07:21:22;18.60;99.90
17795;DHT22;9021;50.882;4.326;2023-05-07T07:23:48;18.60;99.90
17795;DHT22;9021;50.882;4.326;2023-05-07T07:26:13;18.60;99.90
17795;DHT22;9021;50.882;4.326;2023-05-07T07:28:42;18.60;99.90
17795;DHT22;9021;50.882;4.326;2023-05-07T07:31:08;18.60;99.90
17795;DHT22;9021;50.882;4.326;2023-05-07T07:33:33;20.10;99.90
17795;DHT22;9021;50.882;4.326;2023-05-07T07:35:59;18.50;99.90
17795;DHT22;9021;50.882;4.326;2023-05-07T07:38:24;18.50;99.90
17795;DHT22;9021;50.882;4.326;2023-05-07T07:40:50;18.60;99.90
17795;DHT22;9021;50.882;4.326;2023-05-07T07:43:15;18.60;99.90
17795;DHT22;9021;50.882;4.326;2023-05-07T07:45:41;18.60;99.90
17795;DHT22;9021;50.882;4.326;2023-05-07T07:48:07;18.60;99.90
17795;DHT22;9021;50.882;4.326;2023-05-07T07:50:32;18.60;99.90
17795;DHT22;9021;50.882;4.326;2023-05-07T07:52:58;18.70;99.90
17795;DHT22;9021;50.882;4.326;2023-05-07T07:55:23;18.80;99.90
17795;DHT22;9021;50.882;4.326;2023-05-07T07:57:49;18.70;99.90
17795;DHT22;9021;50.882;4.326;2023-05-07T08:00:16;18.60;99.90
17795;DHT22;9021;50.882;4.326;2023-05-07T08:02:41;18.60;99.90
17795;DHT22;9021;50.882;4.326;2023-05-07T08:05:07;18.70;99.90
17795;DHT22;9021;50.882;4.326;2023-05-07T08:07:33;18.70;99.90
17795;DHT22;9021;50.882;4.326;2023-05-07T08:09:58;18.70;99.90
17795;DHT22;9021;50.882;4.326;2023-05-07T08:12:24;18.60;99.90
17795;DHT22;9021;50.882;4.326;2023-05-07T08:14:49;18.60;99.90
17795;DHT22;9021;50.882;4.326;2023-05-07T08:17:15;18.70;99.90
17795;DHT22;9021;50.882;4.326;2023-05-07T08:19:42;18.70;99.90
17795;DHT22;9021;50.882;4.326;2023-05-07T08:22:08;18.80;99.90
17795;DHT22;9021;50.882;4.326;2023-05-07T08:24:33;18.80;99.90
17795;DHT22;9021;50.882;4.326;2023-05-07T08:26:59;18.80;99.90
17795;DHT22;9021;50.882;4.326;2023-05-07T08:29:24;18.80;99.90
17795;DHT22;9021;50.882;4.326;2023-05-07T08:31:50;18.90;99.90
17795;DHT22;9021;50.882;4.326;2023-05-07T08:34:15;18.90;99.90
17795;DHT22;9021;50.882;4.326;2023-05-07T08:36:41;19.00;99.90
17795;DHT22;9021;50.882;4.326;2023-05-07T08:39:12;19.00;99.90
17795;DHT22;9021;50.882;4.326;2023-05-07T08:41:37;18.90;99.90
17795;DHT22;9021;50.882;4.326;2023-05-07T08:44:03;18.80;99.90
17795;DHT22;9021;50.882;4.326;2023-05-07T08:46:31;19.00;99.90
17795;DHT22;9021;50.882;4.326;2023-05-07T08:48:57;19.00;99.90
17795;DHT22;9021;50.882;4.326;2023-05-07T08:51:23;18.90;99.90
17795;DHT22;9021;50.882;4.326;2023-05-07T08:53:48;18.80;99.90
17795;DHT22;9021;50.882;4.326;2023-05-07T08:56:15;18.80;99.90
17795;DHT22;9021;50.882;4.326;2023-05-07T08:58:41;18.60;99.90
17795;DHT22;9021;50.882;4.326;2023-05-07T09:01:08;18.60;99.90
17795;DHT22;9021;50.882;4.326;2023-05-07T09:03:34;18.50;99.90
17795;DHT22;9021;50.882;4.326;2023-05-07T09:05:59;18.50;99.90
17795;DHT22;9021;50.882;4.326;2023-05-07T09:08:26;18.50;99.90
17795;DHT22;9021;50.882;4.326;2023-05-07T09:10:52;18.50;99.90
17795;DHT22;9021;50.882;4.326;2023-05-07T09:13:17;18.60;99.90
17795;DHT22;9021;50.882;4.326;2023-05-07T09:15:43;18.50;99.90
17795;DHT22;9021;50.882;4.326;2023-05-07T09:18:09;18.50;99.90
17795;DHT22;9021;50.882;4.326;2023-05-07T09:20:36;18.40;99.90
17795;DHT22;9021;50.882;4.326;2023-05-07T09:23:01;18.60;99.90
17795;DHT22;9021;50.882;4.326;2023-05-07T09:25:28;18.60;99.90
17795;DHT22;9021;50.882;4.326;2023-05-07T09:27:53;18.60;99.90
17795;DHT22;9021;50.882;4.326;2023-05-07T09:30:19;17.40;99.90
17795;DHT22;9021;50.882;4.326;2023-05-07T09:32:44;18.60;99.90
17795;DHT22;9021;50.882;4.326;2023-05-07T09:35:16;18.70;99.90
17795;DHT22;9021;50.882;4.326;2023-05-07T09:37:42;18.80;99.90
17795;DHT22;9021;50.882;4.326;2023-05-07T09:40:08;18.80;99.90
17795;DHT22;9021;50.882;4.326;2023-05-07T09:42:34;18.90;99.90
17795;DHT22;9021;50.882;4.326;2023-05-07T09:45:00;19.00;99.90
17795;DHT22;9021;50.882;4.326;2023-05-07T09:47:25;19.00;99.90
17795;DHT22;9021;50.882;4.326;2023-05-07T09:49:54;19.10;99.90
17795;DHT22;9021;50.882;4.326;2023-05-07T09:52:21;19.00;99.90
17795;DHT22;9021;50.882;4.326;2023-05-07T09:54:47;19.10;99.90
17795;DHT22;9021;50.882;4.326;2023-05-07T09:57:15;19.10;99.90
17795;DHT22;9021;50.882;4.326;2023-05-07T09:59:41;19.10;99.90
17795;DHT22;9021;50.882;4.326;2023-05-07T10:02:07;18.90;99.90
17795;DHT22;9021;50.882;4.326;2023-05-07T10:04:35;18.80;99.90
17795;DHT22;9021;50.882;4.326;2023-05-07T10:07:01;18.80;99.90
17795;DHT22;9021;50.882;4.326;2023-05-07T10:09:26;18.80;99.90
17795;DHT22;9021;50.882;4.326;2023-05-07T10:11:52;18.90;99.90
17795;DHT22;9021;50.882;4.326;2023-05-07T10:14:19;19.00;99.90
17795;DHT22;9021;50.882;4.326;2023-05-07T10:16:45;18.90;99.90
17795;DHT22;9021;50.882;4.326;2023-05-07T10:19:12;19.00;99.90
17795;DHT22;9021;50.882;4.326;2023-05-07T10:21:39;19.00;99.90
17795;DHT22;9021;50.882;4.326;2023-05-07T10:24:06;19.10;99.90
17795;DHT22;9021;50.882;4.326;2023-05-07T10:26:39;19.20;99.90
17795;DHT22;9021;50.882;4.326;2023-05-07T10:29:07;19.30;99.90
17795;DHT22;9021;50.882;4.326;2023-05-07T10:34:11;19.20;99.90
17795;DHT22;9021;50.882;4.326;2023-05-07T10:36:38;19.30;99.90
17795;DHT22;9021;50.882;4.326;2023-05-07T10:39:05;19.20;99.90
17795;DHT22;9021;50.882;4.326;2023-05-07T10:41:31;19.20;99.90
17795;DHT22;9021;50.882;4.326;2023-05-07T10:43:57;19.00;99.90
17795;DHT22;9021;50.882;4.326;2023-05-07T10:46:22;18.80;99.90
17795;DHT22;9021;50.882;4.326;2023-05-07T10:51:26;18.90;99.90
17795;DHT22;9021;50.882;4.326;2023-05-07T10:56:36;18.90;99.90
17795;DHT22;9021;50.882;4.326;2023-05-07T11:04:21;19.20;99.90
17795;DHT22;9021;50.882;4.326;2023-05-07T11:12:16;19.10;99.90
17795;DHT22;9021;50.882;4.326;2023-05-07T11:14:43;18.90;99.90
17795;DHT22;9021;50.882;4.326;2023-05-07T11:17:09;18.90;99.90
17795;DHT22;9021;50.882;4.326;2023-05-07T11:19:53;19.20;99.90
17795;DHT22;9021;50.882;4.326;2023-05-07T11:24:54;19.40;99.90
17795;DHT22;9021;50.882;4.326;2023-05-07T11:27:23;19.50;99.90
17795;DHT22;9021;50.882;4.326;2023-05-07T11:29:48;19.60;99.90
17795;DHT22;9021;50.882;4.326;2023-05-07T11:32:15;19.70;99.90
17795;DHT22;9021;50.882;4.326;2023-05-07T11:34:41;19.80;99.90
17795;DHT22;9021;50.882;4.326;2023-05-07T11:37:07;19.80;99.90
17795;DHT22;9021;50.882;4.326;2023-05-07T11:39:33;19.80;99.90
17795;DHT22;9021;50.882;4.326;2023-05-07T11:42:00;19.80;99.90
17795;DHT22;9021;50.882;4.326;2023-05-07T11:44:25;19.80;99.90
17795;DHT22;9021;50.882;4.326;2023-05-07T11:47:04;19.90;99.90
17795;DHT22;9021;50.882;4.326;2023-05-07T11:49:29;19.70;99.90
17795;DHT22;9021;50.882;4.326;2023-05-07T11:51:55;19.70;99.90
17795;DHT22;9021;50.882;4.326;2023-05-07T11:54:21;19.70;99.90
17795;DHT22;9021;50.882;4.326;2023-05-07T11:56:47;19.70;99.90
17795;DHT22;9021;50.882;4.326;2023-05-07T11:59:16;19.90;99.90
17795;DHT22;9021;50.882;4.326;2023-05-07T12:01:44;20.00;99.90
17795;DHT22;9021;50.882;4.326;2023-05-07T12:04:10;20.10;99.90
17795;DHT22;9021;50.882;4.326;2023-05-07T12:06:36;20.10;99.90
17795;DHT22;9021;50.882;4.326;2023-05-07T12:09:01;20.20;99.90
17795;DHT22;9021;50.882;4.326;2023-05-07T12:11:27;20.20;99.90
17795;DHT22;9021;50.882;4.326;2023-05-07T12:13:53;20.20;99.90
17795;DHT22;9021;50.882;4.326;2023-05-07T12:16:19;20.20;99.90
17795;DHT22;9021;50.882;4.326;2023-05-07T12:18:44;20.30;99.90
17795;DHT22;9021;50.882;4.326;2023-05-07T12:21:10;20.40;99.90
17795;DHT22;9021;50.882;4.326;2023-05-07T12:23:36;20.40;99.90
17795;DHT22;9021;50.882;4.326;2023-05-07T12:26:02;20.50;99.90
17795;DHT22;9021;50.882;4.326;2023-05-07T12:28:28;20.70;99.90
17795;DHT22;9021;50.882;4.326;2023-05-07T12:30:53;20.80;99.90
17795;DHT22;9021;50.882;4.326;2023-05-07T12:33:23;20.80;99.90
17795;DHT22;9021;50.882;4.326;2023-05-07T12:35:48;20.80;99.90
17795;DHT22;9021;50.882;4.326;2023-05-07T12:38:15;20.80;99.90
17795;DHT22;9021;50.882;4.326;2023-05-07T12:40:46;20.60;99.90
17795;DHT22;9021;50.882;4.326;2023-05-07T12:43:25;20.60;99.90
17795;DHT22;9021;50.882;4.326;2023-05-07T12:45:52;20.70;99.90
17795;DHT22;9021;50.882;4.326;2023-05-07T12:48:19;20.80;99.90
17795;DHT22;9021;50.882;4.326;2023-05-07T12:50:45;20.90;99.90
17795;DHT22;9021;50.882;4.326;2023-05-07T12:53:11;21.10;99.90
17795;DHT22;9021;50.882;4.326;2023-05-07T12:55:50;21.20;99.90
17795;DHT22;9021;50.882;4.326;2023-05-07T12:58:20;21.20;99.90
17795;DHT22;9021;50.882;4.326;2023-05-07T13:00:49;21.30;99.90
17795;DHT22;9021;50.882;4.326;2023-05-07T13:03:31;21.20;99.90
17795;DHT22;9021;50.882;4.326;2023-05-07T13:05:57;21.10;99.90
17795;DHT22;9021;50.882;4.326;2023-05-07T13:08:24;21.20;99.90
17795;DHT22;9021;50.882;4.326;2023-05-07T13:10:50;21.30;99.90
17795;DHT22;9021;50.882;4.326;2023-05-07T13:13:15;21.20;99.90
17795;DHT22;9021;50.882;4.326;2023-05-07T13:15:41;21.20;99.90
17795;DHT22;9021;50.882;4.326;2023-05-07T13:18:06;21.30;99.90
17795;DHT22;9021;50.882;4.326;2023-05-07T13:20:32;21.30;99.90
17795;DHT22;9021;50.882;4.326;2023-05-07T13:22:57;21.20;99.90
17795;DHT22;9021;50.882;4.326;2023-05-07T13:25:23;21.20;99.90
17795;DHT22;9021;50.882;4.326;2023-05-07T13:27:48;21.20;99.90
17795;DHT22;9021;50.882;4.326;2023-05-07T13:30:14;21.10;99.90
17795;DHT22;9021;50.882;4.326;2023-05-07T13:32:40;21.10;99.90
17795;DHT22;9021;50.882;4.326;2023-05-07T13:35:05;21.00;99.90
17795;DHT22;9021;50.882;4.326;2023-05-07T13:37:31;21.00;99.90
17795;DHT22;9021;50.882;4.326;2023-05-07T13:39:56;21.10;99.90
17795;DHT22;9021;50.882;4.326;2023-05-07T13:42:22;21.10;99.90
17795;DHT22;9021;50.882;4.326;2023-05-07T13:44:48;21.00;99.90
17795;DHT22;9021;50.882;4.326;2023-05-07T13:47:13;21.10;99.90
17795;DHT22;9021;50.882;4.326;2023-05-07T13:49:39;21.00;99.90
17795;DHT22;9021;50.882;4.326;2023-05-07T13:52:04;21.00;99.90
17795;DHT22;9021;50.882;4.326;2023-05-07T13:54:30;21.00;99.90
17795;DHT22;9021;50.882;4.326;2023-05-07T13:56:55;21.00;99.90
17795;DHT22;9021;50.882;4.326;2023-05-07T13:59:21;20.90;99.90
17795;DHT22;9021;50.882;4.326;2023-05-07T14:01:46;20.90;99.90
17795;DHT22;9021;50.882;4.326;2023-05-07T14:04:12;20.90;99.90
17795;DHT22;9021;50.882;4.326;2023-05-07T14:06:38;20.80;99.90
17795;DHT22;9021;50.882;4.326;2023-05-07T14:09:04;20.70;99.90
17795;DHT22;9021;50.882;4.326;2023-05-07T14:11:29;20.70;99.90
17795;DHT22;9021;50.882;4.326;2023-05-07T14:13:55;20.90;99.90
17795;DHT22;9021;50.882;4.326;2023-05-07T14:16:22;20.90;99.90
17795;DHT22;9021;50.882;4.326;2023-05-07T14:18:47;21.00;99.90
17795;DHT22;9021;50.882;4.326;2023-05-07T14:21:13;21.10;99.90
17795;DHT22;9021;50.882;4.326;2023-05-07T14:23:39;21.10;99.90
17795;DHT22;9021;50.882;4.326;2023-05-07T14:26:04;21.10;99.90
17795;DHT22;9021;50.882;4.326;2023-05-07T14:28:30;21.30;99.90
17795;DHT22;9021;50.882;4.326;2023-05-07T14:30:56;21.30;99.90
17795;DHT22;9021;50.882;4.326;2023-05-07T14:33:21;21.10;99.90
17795;DHT22;9021;50.882;4.326;2023-05-07T14:35:47;21.10;99.90
17795;DHT22;9021;50.882;4.326;2023-05-07T14:38:14;21.20;99.90
17795;DHT22;9021;50.882;4.326;2023-05-07T14:40:40;21.20;99.90
17795;DHT22;9021;50.882;4.326;2023-05-07T14:43:06;21.30;99.90
17795;DHT22;9021;50.882;4.326;2023-05-07T14:45:32;21.30;99.90
17795;DHT22;9021;50.882;4.326;2023-05-07T14:47:57;21.30;99.90
17795;DHT22;9021;50.882;4.326;2023-05-07T14:50:23;21.30;99.90
17795;DHT22;9021;50.882;4.326;2023-05-07T14:52:48;21.30;99.90
17795;DHT22;9021;50.882;4.326;2023-05-07T14:55:14;21.30;99.90
17795;DHT22;9021;50.882;4.326;2023-05-07T14:57:40;21.30;99.90
17795;DHT22;9021;50.882;4.326;2023-05-07T15:00:05;21.30;99.90
17795;DHT22;9021;50.882;4.326;2023-05-07T15:02:32;23.10;99.90
17795;DHT22;9021;50.882;4.326;2023-05-07T15:04:58;21.30;99.90
17795;DHT22;9021;50.882;4.326;2023-05-07T15:07:24;21.30;99.90
17795;DHT22;9021;50.882;4.326;2023-05-07T15:09:49;21.40;99.90
17795;DHT22;9021;50.882;4.326;2023-05-07T15:12:16;21.40;99.90
17795;DHT22;9021;50.882;4.326;2023-05-07T15:14:41;21.40;99.90
17795;DHT22;9021;50.882;4.326;2023-05-07T15:17:07;21.40;99.90
17795;DHT22;9021;50.882;4.326;2023-05-07T15:19:33;21.30;99.90
17795;DHT22;9021;50.882;4.326;2023-05-07T15:21:59;21.40;99.90
17795;DHT22;9021;50.882;4.326;2023-05-07T15:24:28;21.30;99.90
17795;DHT22;9021;50.882;4.326;2023-05-07T15:26:53;21.20;99.90
17795;DHT22;9021;50.882;4.326;2023-05-07T15:29:19;21.20;99.90
17795;DHT22;9021;50.882;4.326;2023-05-07T15:31:45;21.20;99.90
17795;DHT22;9021;50.882;4.326;2023-05-07T15:34:11;21.10;99.90
17795;DHT22;9021;50.882;4.326;2023-05-07T15:36:37;21.10;99.90
17795;DHT22;9021;50.882;4.326;2023-05-07T15:39:02;21.10;99.90
17795;DHT22;9021;50.882;4.326;2023-05-07T15:41:28;21.10;99.90
17795;DHT22;9021;50.882;4.326;2023-05-07T15:43:54;21.10;99.90
17795;DHT22;9021;50.882;4.326;2023-05-07T15:46:20;20.90;99.90
17795;DHT22;9021;50.882;4.326;2023-05-07T15:48:46;20.80;99.90
17795;DHT22;9021;50.882;4.326;2023-05-07T15:51:12;20.70;99.90
17795;DHT22;9021;50.882;4.326;2023-05-07T15:53:38;20.70;99.90
17795;DHT22;9021;50.882;4.326;2023-05-07T15:56:04;20.70;99.90
17795;DHT22;9021;50.882;4.326;2023-05-07T15:58:30;20.60;99.90